createdAt,value
2022-10-21T00:00:03.490Z,52.22
2022-10-21T00:01:08.015Z,52.21
2022-10-21T00:02:11.049Z,52.20
2022-10-21T00:03:14.611Z,52.21
2022-10-21T00:04:16.697Z,52.18
2022-10-21T00:05:18.820Z,52.20
2022-10-21T00:06:20.902Z,52.18
2022-10-21T00:07:23.929Z,52.17
2022-10-21T00:08:26.162Z,52.18
2022-10-21T00:09:28.818Z,52.18
2022-10-21T00:10:32.356Z,52.20
2022-10-21T00:11:34.662Z,52.17
2022-10-21T00:12:37.082Z,52.18
2022-10-21T00:13:39.801Z,52.18
2022-10-21T00:14:41.977Z,52.18
2022-10-21T00:15:44.440Z,52.18
2022-10-21T00:16:46.593Z,52.17
2022-10-21T00:17:48.703Z,52.19
2022-10-21T00:18:50.679Z,52.17
2022-10-21T00:19:52.913Z,52.17
2022-10-21T00:20:55.094Z,52.19
2022-10-21T00:21:57.189Z,52.19
2022-10-21T00:23:00.037Z,52.19
2022-10-21T00:24:02.218Z,52.21
2022-10-21T00:25:05.195Z,52.19
2022-10-21T00:26:07.901Z,52.42
2022-10-21T00:27:09.862Z,52.42
2022-10-21T00:28:12.396Z,52.20
2022-10-21T00:29:14.782Z,52.23
2022-10-21T00:30:18.245Z,52.20
2022-10-21T00:31:21.279Z,52.23
2022-10-21T00:32:23.368Z,52.24
2022-10-21T00:33:25.860Z,52.22
2022-10-21T00:34:30.736Z,52.25
2022-10-21T00:35:33.570Z,52.25
2022-10-21T00:36:36.723Z,52.24
2022-10-21T00:37:39.131Z,52.25
2022-10-21T00:38:42.815Z,52.50
2022-10-21T00:39:45.151Z,52.50
2022-10-21T00:40:47.557Z,52.25
2022-10-21T00:41:49.533Z,52.23
2022-10-21T00:42:51.676Z,52.23
2022-10-21T00:44:02.691Z,52.25
2022-10-21T00:45:09.215Z,52.26
2022-10-21T00:46:12.324Z,52.31
2022-10-21T00:47:16.318Z,52.31
2022-10-21T00:48:28.577Z,52.37
2022-10-21T00:49:39.533Z,52.37
2022-10-21T00:50:58.947Z,52.39
2022-10-21T00:52:01.842Z,52.42
2022-10-21T00:53:05.707Z,52.39
2022-10-21T00:54:07.888Z,52.42
2022-10-21T00:55:11.038Z,52.45
2022-10-21T00:56:17.765Z,52.46
2022-10-21T00:57:19.920Z,52.50
2022-10-21T00:58:23.301Z,52.47
2022-10-21T00:59:27.783Z,52.49
2022-10-21T01:00:30.071Z,52.48
2022-10-21T01:01:32.410Z,52.48
2022-10-21T01:02:35.173Z,52.48
2022-10-21T01:03:37.176Z,52.49
2022-10-21T01:04:39.956Z,52.48
2022-10-21T01:05:42.704Z,52.48
2022-10-21T01:06:45.054Z,52.50
2022-10-21T01:07:48.149Z,52.47
2022-10-21T01:08:50.532Z,52.50
2022-10-21T01:09:53.518Z,52.48
2022-10-21T01:10:56.503Z,52.48
2022-10-21T01:11:58.516Z,52.47
2022-10-21T01:13:12.083Z,52.47
2022-10-21T01:14:30.178Z,52.47
2022-10-21T01:15:47.090Z,52.44
2022-10-21T01:17:11.551Z,52.44
2022-10-21T01:18:15.125Z,52.44
2022-10-21T01:19:53.029Z,52.47
2022-10-21T01:22:22.373Z,52.50
2022-10-21T01:23:31.213Z,52.53
2022-10-21T01:24:48.209Z,52.59
2022-10-21T01:26:24.751Z,52.62
2022-10-21T01:27:57.220Z,52.63
2022-10-21T01:29:12.105Z,52.64
2022-10-21T01:30:18.119Z,52.64
2022-10-21T01:31:30.912Z,52.68
2022-10-21T01:34:33.765Z,52.82
2022-10-21T01:35:46.036Z,52.81
2022-10-21T01:36:55.093Z,52.83
2022-10-21T01:38:06.925Z,52.87
2022-10-21T01:39:22.518Z,52.91
2022-10-21T01:41:01.516Z,52.93
2022-10-21T01:42:42.476Z,52.97
2022-10-21T01:45:12.130Z,53.00
2022-10-21T01:46:18.168Z,53.00
2022-10-21T01:47:22.628Z,53.06
2022-10-21T01:48:27.431Z,53.11
2022-10-21T01:49:42.622Z,53.12
2022-10-21T01:52:00.556Z,53.09
2022-10-21T01:53:06.488Z,53.09
2022-10-21T01:54:15.614Z,53.08
2022-10-21T01:55:19.724Z,53.12
2022-10-21T01:56:22.051Z,53.09
2022-10-21T01:57:26.189Z,53.07
2022-10-21T01:58:30.940Z,53.00
2022-10-21T01:59:33.071Z,53.00
2022-10-21T02:00:36.024Z,53.00
2022-10-21T02:01:38.229Z,52.95
2022-10-21T02:02:43.082Z,52.95
2022-10-21T02:03:46.533Z,52.94
2022-10-21T02:04:49.582Z,52.92
2022-10-21T02:05:52.027Z,52.87
2022-10-21T02:06:54.583Z,52.79
2022-10-21T02:07:56.706Z,52.79
2022-10-21T02:08:58.971Z,52.84
2022-10-21T02:10:01.092Z,52.79
2022-10-21T02:11:05.706Z,52.81
2022-10-21T02:12:07.791Z,52.75
2022-10-21T02:13:11.456Z,52.75
2022-10-21T02:14:23.004Z,52.74
2022-10-21T02:15:26.998Z,52.74
2022-10-21T02:16:34.318Z,52.74
2022-10-21T02:17:37.448Z,52.77
2022-10-21T02:18:40.578Z,52.75
2022-10-21T02:19:42.835Z,52.77
2022-10-21T02:20:45.423Z,52.74
2022-10-21T02:21:48.908Z,52.73
2022-10-21T02:22:52.220Z,52.74
2022-10-21T02:24:13.356Z,52.71
2022-10-21T02:25:18.608Z,52.70
2022-10-21T02:26:21.652Z,52.71
2022-10-21T02:27:24.535Z,52.65
2022-10-21T02:28:28.786Z,52.68
2022-10-21T02:29:34.172Z,52.67
2022-10-21T02:32:03.592Z,52.72
2022-10-21T02:34:40.155Z,52.72
2022-10-21T02:36:01.746Z,52.71
2022-10-21T02:37:19.970Z,52.77
2022-10-21T02:39:47.050Z,52.81
2022-10-21T02:41:01.286Z,52.83
2022-10-21T02:42:05.930Z,52.84
2022-10-21T02:44:31.960Z,52.86
2022-10-21T02:45:33.937Z,52.86
2022-10-21T02:46:37.619Z,52.85
2022-10-21T02:47:40.221Z,52.73
2022-10-21T02:48:46.846Z,52.73
2022-10-21T02:49:48.994Z,52.86
2022-10-21T02:50:51.274Z,52.82
2022-10-21T02:51:54.354Z,52.82
2022-10-21T02:52:56.320Z,52.85
2022-10-21T02:53:58.832Z,52.91
2022-10-21T02:55:00.816Z,52.96
2022-10-21T02:56:03.165Z,52.99
2022-10-21T02:57:06.545Z,53.03
2022-10-21T02:58:09.825Z,53.08
2022-10-21T02:59:11.862Z,53.08
2022-10-21T03:00:14.793Z,53.09
2022-10-21T03:01:18.150Z,53.12
2022-10-21T03:02:20.590Z,53.27
2022-10-21T03:03:23.077Z,53.32
2022-10-21T03:04:25.148Z,53.37
2022-10-21T03:05:27.890Z,53.43
2022-10-21T03:06:30.294Z,53.53
2022-10-21T03:07:33.095Z,53.63
2022-10-21T03:08:35.166Z,53.67
2022-10-21T03:09:37.176Z,53.76
2022-10-21T03:10:39.393Z,53.88
2022-10-21T03:11:41.453Z,53.92
2022-10-21T03:12:43.461Z,54.04
2022-10-21T03:13:45.530Z,54.10
2022-10-21T03:14:47.641Z,54.12
2022-10-21T03:15:49.709Z,54.20
2022-10-21T03:16:51.834Z,54.20
2022-10-21T03:17:53.880Z,54.26
2022-10-21T03:18:56.916Z,54.31
2022-10-21T03:20:00.075Z,54.34
2022-10-21T03:21:02.526Z,54.35
2022-10-21T03:22:04.511Z,54.41
2022-10-21T03:23:06.505Z,54.42
2022-10-21T03:24:15.252Z,54.46
2022-10-21T03:25:12.520Z,54.48
2022-10-21T03:26:15.851Z,54.53
2022-10-21T03:27:18.041Z,54.50
2022-10-21T03:28:20.969Z,54.53
2022-10-21T03:29:24.113Z,54.56
2022-10-21T03:30:26.284Z,54.59
2022-10-21T03:31:28.460Z,54.54
2022-10-21T03:32:31.444Z,54.55
2022-10-21T03:33:33.587Z,54.55
2022-10-21T03:34:35.669Z,54.55
2022-10-21T03:35:37.797Z,54.56
2022-10-21T03:36:39.954Z,54.60
2022-10-21T03:37:42.915Z,54.59
2022-10-21T03:38:45.939Z,54.61
2022-10-21T03:39:48.777Z,54.56
2022-10-21T03:40:51.482Z,54.61
2022-10-21T03:41:54.085Z,54.55
2022-10-21T03:42:57.712Z,54.55
2022-10-21T03:44:00.385Z,54.70
2022-10-21T03:45:02.389Z,54.78
2022-10-21T03:46:04.934Z,54.78
2022-10-21T03:47:07.172Z,54.82
2022-10-21T03:48:09.635Z,54.82
2022-10-21T03:49:20.216Z,54.88
2022-10-21T03:50:18.319Z,54.85
2022-10-21T03:51:20.754Z,54.84
2022-10-21T03:52:22.833Z,54.78
2022-10-21T03:53:42.217Z,54.77
2022-10-21T03:54:30.762Z,54.80
2022-10-21T03:55:32.916Z,54.80
2022-10-21T03:56:35.866Z,54.79
2022-10-21T03:57:38.836Z,54.80
2022-10-21T03:58:42.539Z,54.83
2022-10-21T03:59:45.062Z,54.82
2022-10-21T04:00:53.343Z,54.80
2022-10-21T04:01:56.592Z,54.80
2022-10-21T04:02:59.079Z,54.78
2022-10-21T04:04:01.075Z,54.78
2022-10-21T04:05:04.333Z,54.82
2022-10-21T04:06:07.215Z,54.80
2022-10-21T04:07:09.589Z,54.80
2022-10-21T04:08:11.903Z,54.78
2022-10-21T04:09:13.938Z,54.89
2022-10-21T04:10:16.578Z,54.87
2022-10-21T04:11:18.594Z,54.89
2022-10-21T04:12:21.241Z,54.91
2022-10-21T04:13:23.906Z,54.96
2022-10-21T04:14:26.249Z,54.96
2022-10-21T04:15:28.222Z,55.04
2022-10-21T04:16:30.311Z,54.98
2022-10-21T04:17:32.372Z,55.09
2022-10-21T04:18:35.001Z,55.06
2022-10-21T04:19:38.121Z,55.05
2022-10-21T04:20:40.596Z,55.04
2022-10-21T04:21:44.738Z,54.99
2022-10-21T04:22:46.881Z,54.97
2022-10-21T04:23:49.904Z,54.95
2022-10-21T04:24:52.358Z,54.93
2022-10-21T04:25:54.429Z,54.93
2022-10-21T04:26:57.623Z,54.93
2022-10-21T04:27:59.690Z,54.92
2022-10-21T04:29:03.006Z,54.93
2022-10-21T04:30:07.887Z,54.93
2022-10-21T04:31:10.214Z,54.90
2022-10-21T04:32:13.394Z,54.85
2022-10-21T04:33:15.530Z,54.92
2022-10-21T04:34:18.571Z,54.96
2022-10-21T04:35:20.813Z,54.99
2022-10-21T04:36:24.376Z,54.97
2022-10-21T04:37:26.438Z,54.99
2022-10-21T04:38:28.534Z,54.98
2022-10-21T04:39:30.755Z,54.96
2022-10-21T04:40:35.260Z,54.89
2022-10-21T04:41:38.098Z,54.87
2022-10-21T04:42:40.213Z,54.78
2022-10-21T04:43:42.682Z,54.72
2022-10-21T04:44:44.927Z,54.67
2022-10-21T04:45:46.919Z,54.58
2022-10-21T04:46:49.333Z,54.49
2022-10-21T04:47:51.314Z,54.43
2022-10-21T04:48:53.289Z,54.36
2022-10-21T04:49:55.283Z,54.27
2022-10-21T04:51:10.907Z,54.18
2022-10-21T04:52:13.520Z,54.10
2022-10-21T04:53:15.683Z,53.99
2022-10-21T04:54:18.323Z,53.89
2022-10-21T04:55:21.480Z,53.84
2022-10-21T04:56:24.537Z,53.80
2022-10-21T04:57:27.624Z,53.72
2022-10-21T04:58:29.864Z,53.64
2022-10-21T04:59:31.989Z,53.58
2022-10-21T05:00:34.731Z,53.50
2022-10-21T05:01:37.446Z,53.45
2022-10-21T05:02:40.272Z,53.39
2022-10-21T05:03:42.637Z,53.39
2022-10-21T05:04:45.547Z,53.35
2022-10-21T05:05:49.572Z,53.32
2022-10-21T05:06:51.783Z,53.27
2022-10-21T05:07:54.311Z,53.27
2022-10-21T05:08:57.292Z,53.28
2022-10-21T05:09:59.455Z,53.29
2022-10-21T05:11:03.174Z,53.34
2022-10-21T05:12:06.206Z,53.36
2022-10-21T05:13:08.323Z,53.37
2022-10-21T05:14:10.822Z,53.34
2022-10-21T05:15:12.902Z,53.28
2022-10-21T05:16:15.176Z,53.28
2022-10-21T05:17:17.164Z,53.25
2022-10-21T05:18:19.735Z,53.23
2022-10-21T05:19:24.746Z,53.23
2022-10-21T05:20:27.352Z,53.21
2022-10-21T05:21:29.481Z,53.16
2022-10-21T05:22:31.835Z,53.18
2022-10-21T05:23:33.834Z,53.22
2022-10-21T05:24:35.953Z,53.22
2022-10-21T05:25:38.139Z,53.26
2022-10-21T05:26:40.341Z,53.32
2022-10-21T05:27:43.690Z,53.35
2022-10-21T05:28:45.720Z,53.32
2022-10-21T05:29:47.888Z,53.36
2022-10-21T05:30:49.999Z,53.35
2022-10-21T05:31:52.024Z,53.38
2022-10-21T05:32:54.658Z,53.38
2022-10-21T05:33:56.758Z,53.37
2022-10-21T05:34:58.801Z,53.35
2022-10-21T05:36:03.701Z,53.33
2022-10-21T05:37:06.399Z,53.30
2022-10-21T05:38:08.937Z,53.29
2022-10-21T05:39:12.394Z,53.29
2022-10-21T05:40:17.072Z,53.29
2022-10-21T05:41:20.266Z,53.28
2022-10-21T05:42:22.641Z,53.26
2022-10-21T05:43:25.410Z,53.31
2022-10-21T05:44:27.512Z,53.28
2022-10-21T05:45:29.598Z,53.24
2022-10-21T05:46:31.974Z,53.23
2022-10-21T05:47:34.159Z,53.26
2022-10-21T05:48:40.632Z,53.20
2022-10-21T05:49:42.927Z,53.19
2022-10-21T05:50:45.850Z,53.21
2022-10-21T05:51:49.341Z,53.24
2022-10-21T05:52:53.896Z,53.30
2022-10-21T05:53:56.393Z,53.28
2022-10-21T05:54:59.773Z,53.25
2022-10-21T05:56:06.402Z,53.24
2022-10-21T05:57:08.551Z,53.24
2022-10-21T05:58:10.979Z,53.21
2022-10-21T05:59:13.970Z,53.20
2022-10-21T06:00:17.553Z,53.19
2022-10-21T06:01:19.873Z,53.15
2022-10-21T06:02:22.961Z,53.15
2022-10-21T06:03:28.928Z,53.19
2022-10-21T06:04:35.030Z,53.18
2022-10-21T06:05:35.862Z,53.13
2022-10-21T06:06:38.413Z,53.15
2022-10-21T06:07:41.883Z,53.14
2022-10-21T06:08:44.444Z,53.18
2022-10-21T06:09:47.833Z,53.14
2022-10-21T06:10:52.380Z,53.17
2022-10-21T06:11:54.494Z,53.14
2022-10-21T06:12:56.478Z,53.12
2022-10-21T06:13:59.137Z,53.10
2022-10-21T06:15:02.131Z,53.13
2022-10-21T06:17:08.890Z,53.18
2022-10-21T06:18:12.082Z,53.19
2022-10-21T06:19:14.128Z,53.18
2022-10-21T06:20:18.220Z,53.17
2022-10-21T06:21:20.408Z,53.17
2022-10-21T06:22:23.251Z,53.14
2022-10-21T06:23:25.393Z,53.14
2022-10-21T06:24:29.622Z,53.12
2022-10-21T06:25:32.713Z,53.08
2022-10-21T06:26:36.961Z,53.07
2022-10-21T06:27:39.683Z,53.06
2022-10-21T06:28:42.742Z,53.04
2022-10-21T06:29:46.272Z,53.06
2022-10-21T06:30:49.130Z,53.03
2022-10-21T06:31:51.502Z,53.07
2022-10-21T06:32:54.908Z,53.14
2022-10-21T06:33:57.101Z,53.15
2022-10-21T06:34:59.297Z,53.19
2022-10-21T06:36:01.409Z,51.91
2022-10-21T06:37:03.484Z,52.13
2022-10-21T06:38:05.571Z,51.99
2022-10-21T06:39:07.939Z,51.89
2022-10-21T06:40:11.788Z,51.25
2022-10-21T06:41:14.778Z,50.07
2022-10-21T06:42:16.873Z,49.94
2022-10-21T06:44:24.210Z,49.76
2022-10-21T06:45:26.659Z,48.58
2022-10-21T06:46:28.886Z,46.79
2022-10-21T06:47:32.434Z,44.61
2022-10-21T06:48:34.630Z,44.19
2022-10-21T06:49:36.703Z,44.51
2022-10-21T06:50:40.048Z,45.72
2022-10-21T06:51:42.383Z,47.38
2022-10-21T06:52:45.553Z,47.86
2022-10-21T06:53:54.415Z,47.12
2022-10-21T06:54:57.020Z,46.28
2022-10-21T06:57:15.010Z,46.87
2022-10-21T06:58:19.108Z,47.30
2022-10-21T06:59:21.234Z,47.30
2022-10-21T07:00:23.632Z,46.51
2022-10-21T07:01:34.862Z,47.05
2022-10-21T07:02:32.507Z,47.16
2022-10-21T07:03:34.640Z,44.12
2022-10-21T07:04:36.630Z,42.74
2022-10-21T07:05:38.598Z,44.42
2022-10-21T07:06:41.901Z,45.22
2022-10-21T07:07:43.934Z,44.30
2022-10-21T07:08:54.177Z,44.16
2022-10-21T07:09:50.767Z,44.36
2022-10-21T07:10:53.141Z,45.57
2022-10-21T07:11:55.109Z,45.19
2022-10-21T07:13:00.130Z,44.81
2022-10-21T07:14:02.890Z,45.19
2022-10-21T07:15:06.648Z,45.86
2022-10-21T07:16:17.226Z,45.71
2022-10-21T07:17:21.084Z,46.21
2022-10-21T07:18:24.147Z,46.90
2022-10-21T07:19:26.232Z,47.14
2022-10-21T07:20:28.528Z,47.37
2022-10-21T07:21:32.588Z,47.27
2022-10-21T07:22:34.820Z,47.25
2022-10-21T07:23:36.819Z,44.34
2022-10-21T07:24:38.812Z,45.28
2022-10-21T07:25:40.922Z,44.46
2022-10-21T07:26:43.112Z,44.69
2022-10-21T07:27:47.606Z,45.89
2022-10-21T07:28:49.251Z,45.88
2022-10-21T07:29:51.357Z,45.99
2022-10-21T07:30:54.209Z,45.98
2022-10-21T07:31:57.608Z,46.04
2022-10-21T07:32:59.856Z,46.10
2022-10-21T07:35:06.247Z,46.24
2022-10-21T07:37:27.021Z,46.31
2022-10-21T07:38:29.016Z,46.32
2022-10-21T07:39:31.512Z,46.45
2022-10-21T07:40:40.164Z,46.57
2022-10-21T07:41:45.790Z,46.60
2022-10-21T07:42:49.004Z,46.63
2022-10-21T07:43:51.244Z,46.75
2022-10-21T07:44:53.409Z,46.84
2022-10-21T07:45:57.066Z,46.89
2022-10-21T07:46:59.511Z,47.00
2022-10-21T07:48:01.703Z,47.05
2022-10-21T07:49:05.427Z,47.09
2022-10-21T07:50:09.215Z,47.15
2022-10-21T07:51:13.133Z,47.19
2022-10-21T07:53:18.171Z,47.33
2022-10-21T07:54:21.624Z,47.36
2022-10-21T07:55:24.824Z,47.42
2022-10-21T07:56:31.821Z,47.50
2022-10-21T07:57:33.982Z,47.57
2022-10-21T07:58:35.958Z,47.64
2022-10-21T07:59:38.061Z,47.70
2022-10-21T08:00:42.687Z,47.75
2022-10-21T08:01:45.680Z,47.80
2022-10-21T08:02:50.395Z,47.95
2022-10-21T08:03:53.390Z,47.95
2022-10-21T08:04:56.446Z,47.92
2022-10-21T08:05:59.948Z,47.98
2022-10-21T08:07:03.086Z,48.00
2022-10-21T08:08:06.384Z,48.03
2022-10-21T08:09:08.801Z,48.05
2022-10-21T08:11:31.078Z,48.10
2022-10-21T08:12:34.252Z,47.89
2022-10-21T08:13:37.595Z,48.03
2022-10-21T08:14:41.000Z,48.16
2022-10-21T08:15:44.818Z,48.08
2022-10-21T08:16:53.757Z,47.25
2022-10-21T08:17:57.519Z,47.46
2022-10-21T08:19:00.129Z,46.36
2022-10-21T08:20:03.795Z,45.25
2022-10-21T08:21:07.289Z,45.18
2022-10-21T08:22:09.644Z,44.59
2022-10-21T08:23:12.218Z,46.54
2022-10-21T08:24:14.298Z,40.32
2022-10-21T08:25:16.288Z,41.87
2022-10-21T08:26:19.397Z,44.10
2022-10-21T08:27:21.826Z,42.12
2022-10-21T08:28:24.695Z,43.20
2022-10-21T08:29:27.550Z,44.25
2022-10-21T08:30:29.879Z,44.98
2022-10-21T08:31:31.848Z,45.28
2022-10-21T08:32:33.921Z,45.27
2022-10-21T08:33:36.320Z,44.64
2022-10-21T08:34:38.542Z,44.50
2022-10-21T08:35:40.651Z,44.40
2022-10-21T08:36:49.141Z,43.81
2022-10-21T08:37:51.160Z,44.15
2022-10-21T08:38:56.344Z,44.23
2022-10-21T08:39:58.858Z,44.23
2022-10-21T08:41:01.555Z,43.58
2022-10-21T08:42:14.617Z,43.90
2022-10-21T08:43:22.295Z,42.47
2022-10-21T08:44:43.107Z,41.28
2022-10-21T08:45:50.388Z,43.15
2022-10-21T08:48:14.120Z,43.72
2022-10-21T08:49:55.365Z,43.37
2022-10-21T08:50:58.663Z,42.43
2022-10-21T08:52:04.274Z,43.20
2022-10-21T08:53:15.713Z,43.42
2022-10-21T08:54:25.328Z,43.50
2022-10-21T08:56:48.974Z,41.62
2022-10-21T08:57:51.235Z,42.70
2022-10-21T08:58:54.104Z,43.01
2022-10-21T08:59:56.379Z,43.13
2022-10-21T09:01:11.206Z,43.21
2022-10-21T09:02:32.669Z,43.25
2022-10-21T09:03:48.677Z,43.27
2022-10-21T09:05:02.640Z,43.26
2022-10-21T09:06:14.546Z,42.77
2022-10-21T09:07:42.248Z,42.58
2022-10-21T09:10:15.122Z,42.17
2022-10-21T09:11:53.432Z,41.18
2022-10-21T09:13:07.593Z,41.91
2022-10-21T09:14:32.931Z,41.99
2022-10-21T09:15:50.952Z,42.35
2022-10-21T09:17:09.665Z,41.92
2022-10-21T09:18:27.861Z,42.31
2022-10-21T09:19:33.778Z,41.69
2022-10-21T09:22:16.207Z,42.00
2022-10-21T09:23:22.266Z,40.57
2022-10-21T09:24:31.207Z,42.12
2022-10-21T09:25:36.180Z,42.47
2022-10-21T09:26:42.846Z,42.64
2022-10-21T09:27:55.520Z,42.99
2022-10-21T09:28:51.033Z,43.10
2022-10-21T09:31:15.146Z,43.36
2022-10-21T09:32:19.273Z,43.51
2022-10-21T09:33:24.238Z,43.62
2022-10-21T09:35:54.110Z,43.79
2022-10-21T09:36:56.252Z,43.87
2022-10-21T09:38:01.942Z,43.95
2022-10-21T09:39:09.493Z,43.99
2022-10-21T09:40:22.585Z,44.03
2022-10-21T09:41:28.158Z,44.06
2022-10-21T09:42:46.334Z,44.11
2022-10-21T09:43:35.376Z,44.13
2022-10-21T09:44:38.541Z,44.18
2022-10-21T09:45:43.686Z,44.18
2022-10-21T09:46:46.897Z,44.23
2022-10-21T09:48:01.473Z,44.25
2022-10-21T09:51:17.051Z,44.36
2022-10-21T09:52:20.267Z,44.40
2022-10-21T09:54:40.199Z,44.46
2022-10-21T09:55:44.900Z,44.44
2022-10-21T09:56:53.473Z,44.50
2022-10-21T09:57:58.015Z,44.48
2022-10-21T09:59:09.877Z,44.48
2022-10-21T10:00:14.017Z,44.48
2022-10-21T10:01:19.506Z,44.52
2022-10-21T10:03:45.359Z,44.59
2022-10-21T10:04:48.418Z,44.62
2022-10-21T10:05:50.475Z,44.79
2022-10-21T10:06:53.963Z,44.87
2022-10-21T10:07:56.114Z,44.89
2022-10-21T10:09:25.304Z,44.90
2022-10-21T10:11:51.913Z,45.09
2022-10-21T10:12:57.466Z,45.12
2022-10-21T10:14:01.101Z,45.11
2022-10-21T10:16:33.101Z,45.30
2022-10-21T10:17:36.059Z,45.29
2022-10-21T10:18:39.153Z,45.32
2022-10-21T10:19:41.434Z,45.35
2022-10-21T10:20:43.613Z,45.33
2022-10-21T10:21:46.138Z,45.38
2022-10-21T10:23:05.015Z,45.35
2022-10-21T10:25:30.688Z,45.38
2022-10-21T10:26:34.592Z,45.43
2022-10-21T10:27:53.652Z,45.44
2022-10-21T10:29:06.605Z,45.44
2022-10-21T10:30:40.117Z,45.45
2022-10-21T10:31:48.605Z,45.41
2022-10-21T10:32:51.622Z,45.46
2022-10-21T10:33:58.922Z,45.43
2022-10-21T10:35:02.393Z,45.45
2022-10-21T10:36:09.357Z,45.53
2022-10-21T10:38:36.898Z,45.56
2022-10-21T10:39:40.869Z,45.57
2022-10-21T10:40:43.195Z,45.64
2022-10-21T10:41:47.195Z,45.60
2022-10-21T10:42:51.738Z,35.80
2022-10-21T10:43:55.400Z,34.17
2022-10-21T10:45:01.751Z,33.41
2022-10-21T10:46:06.430Z,32.32
2022-10-21T10:48:36.112Z,39.96
2022-10-21T10:49:39.681Z,40.95
2022-10-21T10:50:47.179Z,41.64
2022-10-21T10:52:12.967Z,41.81
2022-10-21T10:53:35.078Z,41.94
2022-10-21T10:54:39.902Z,42.04
2022-10-21T10:55:43.767Z,42.23
2022-10-21T10:57:12.695Z,42.23
2022-10-21T10:58:18.295Z,42.32
2022-10-21T10:59:40.091Z,42.48
2022-10-21T11:00:43.100Z,42.55
2022-10-21T11:01:58.387Z,42.62
2022-10-21T11:04:49.966Z,42.86
2022-10-21T11:05:53.611Z,42.93
2022-10-21T11:07:00.047Z,43.06
2022-10-21T11:08:20.976Z,43.09
2022-10-21T11:09:26.489Z,43.17
2022-10-21T11:10:40.388Z,43.25
2022-10-21T11:11:46.891Z,43.33
2022-10-21T11:12:49.758Z,40.24
2022-10-21T11:13:52.482Z,40.82
2022-10-21T11:14:56.441Z,42.47
2022-10-21T11:16:10.802Z,41.06
2022-10-21T11:17:13.784Z,40.36
2022-10-21T15:27:18.953Z,59.88
2022-10-21T15:28:21.274Z,60.04
2022-10-21T15:29:27.021Z,60.08
2022-10-21T15:30:30.008Z,59.99
2022-10-21T15:31:32.168Z,59.84
2022-10-21T15:32:35.094Z,59.68
2022-10-21T15:33:37.781Z,59.38
2022-10-21T15:34:41.231Z,58.96
2022-10-21T15:35:44.156Z,58.83
2022-10-21T15:36:46.550Z,58.40
2022-10-21T15:37:51.858Z,58.13
2022-10-21T15:38:54.021Z,57.63
2022-10-21T15:39:57.356Z,57.25
2022-10-21T15:41:00.738Z,56.93
2022-10-21T15:42:06.689Z,56.37
2022-10-21T15:43:11.648Z,56.14
2022-10-21T15:44:22.861Z,55.68
2022-10-21T15:45:26.736Z,55.38
2022-10-21T15:46:32.478Z,54.92
2022-10-21T15:47:35.030Z,54.52
2022-10-21T15:48:37.353Z,54.28
2022-10-21T15:49:39.768Z,53.78
2022-10-21T15:50:43.196Z,53.28
2022-10-21T15:51:45.794Z,52.94
2022-10-21T15:52:49.355Z,52.73
2022-10-21T15:53:52.358Z,51.51
2022-10-21T15:55:09.423Z,50.82
2022-10-21T15:57:27.514Z,50.10
2022-10-21T15:58:30.947Z,50.29
2022-10-21T15:59:34.923Z,50.19
2022-10-21T16:00:41.006Z,50.02
2022-10-21T16:01:44.853Z,47.75
2022-10-21T16:02:47.842Z,48.37
2022-10-21T16:03:50.127Z,48.64
2022-10-21T16:04:52.306Z,47.86
2022-10-21T16:05:56.960Z,48.02
2022-10-21T16:06:59.226Z,48.32
2022-10-21T16:08:01.436Z,48.02
2022-10-21T16:09:03.589Z,48.06
2022-10-21T16:11:59.356Z,48.17
2022-10-21T16:12:56.082Z,48.05
2022-10-21T16:13:59.400Z,48.06
2022-10-21T16:15:02.710Z,48.14
2022-10-21T16:17:24.556Z,48.09
2022-10-21T16:18:28.828Z,48.22
2022-10-21T16:19:31.609Z,48.24
2022-10-21T16:20:35.671Z,48.31
2022-10-21T16:21:38.003Z,48.33
2022-10-21T16:22:41.740Z,48.36
2022-10-21T16:23:44.447Z,48.28
2022-10-21T16:24:46.769Z,48.35
2022-10-21T16:25:50.031Z,48.40
2022-10-21T16:26:52.862Z,48.48
2022-10-21T16:27:56.533Z,48.41
2022-10-21T16:28:59.639Z,48.39
2022-10-21T16:31:27.079Z,48.41
2022-10-21T16:32:29.710Z,48.40
2022-10-21T16:33:34.115Z,48.49
2022-10-21T16:34:36.563Z,48.53
2022-10-21T16:35:39.883Z,48.54
2022-10-21T16:36:43.184Z,48.50
2022-10-21T16:37:46.750Z,48.45
2022-10-21T16:38:49.379Z,48.46
2022-10-21T16:39:53.233Z,48.63
2022-10-21T16:40:56.177Z,48.67
2022-10-21T16:41:58.384Z,48.76
2022-10-21T16:43:01.927Z,48.75
2022-10-21T16:44:04.081Z,48.77
2022-10-21T16:45:08.021Z,48.79
2022-10-21T16:46:32.578Z,48.85
2022-10-21T16:47:34.816Z,48.82
2022-10-21T16:48:38.208Z,48.80
2022-10-21T16:49:41.328Z,49.11
2022-10-21T16:50:45.777Z,49.11
2022-10-21T16:51:48.915Z,48.83
2022-10-21T16:52:52.451Z,48.82
2022-10-21T16:53:55.348Z,48.85
2022-10-21T16:54:57.540Z,48.88
2022-10-21T16:55:59.738Z,48.92
2022-10-21T16:57:03.449Z,48.89
2022-10-21T16:58:06.775Z,48.93
2022-10-21T16:59:09.641Z,48.98
2022-10-21T17:00:16.104Z,48.95
2022-10-21T17:01:19.819Z,48.95
2022-10-21T17:02:22.271Z,48.96
2022-10-21T17:03:24.489Z,48.94
2022-10-21T17:04:26.886Z,48.96
2022-10-21T17:05:29.704Z,48.94
2022-10-21T17:06:32.932Z,48.97
2022-10-21T17:07:35.031Z,48.97
2022-10-21T17:08:39.410Z,48.93
2022-10-21T17:09:41.882Z,48.98
2022-10-21T17:10:44.237Z,48.97
2022-10-21T17:11:47.069Z,48.96
2022-10-21T17:12:49.310Z,48.99
2022-10-21T17:13:51.591Z,49.00
2022-10-21T17:14:54.152Z,49.03
2022-10-21T17:15:56.469Z,49.05
2022-10-21T17:17:00.552Z,49.06
2022-10-21T17:18:04.207Z,49.10
2022-10-21T17:19:07.464Z,49.11
2022-10-21T17:20:11.546Z,49.09
2022-10-21T17:22:31.489Z,49.17
2022-10-21T17:23:34.050Z,49.15
2022-10-21T17:24:36.323Z,49.13
2022-10-21T17:25:38.446Z,49.14
2022-10-21T17:26:41.785Z,49.15
2022-10-21T17:27:44.516Z,49.11
2022-10-21T17:28:47.601Z,49.13
2022-10-21T17:29:50.975Z,49.12
2022-10-21T17:30:58.276Z,49.10
2022-10-21T17:32:21.359Z,49.12
2022-10-21T17:33:23.897Z,49.13
2022-10-21T17:35:43.049Z,49.14
2022-10-21T17:36:47.073Z,49.13
2022-10-21T17:37:52.070Z,49.12
2022-10-21T17:38:55.213Z,49.14
2022-10-21T17:39:58.122Z,49.17
2022-10-21T17:41:00.452Z,49.19
2022-10-21T17:42:03.511Z,49.25
2022-10-21T17:43:06.164Z,49.25
2022-10-21T17:44:10.976Z,49.15
2022-10-21T17:45:13.699Z,49.15
2022-10-21T17:46:17.886Z,49.18
2022-10-21T17:47:21.131Z,49.19
2022-10-21T17:48:23.387Z,49.17
2022-10-21T17:49:26.610Z,49.19
2022-10-21T17:50:28.879Z,49.24
2022-10-21T17:51:32.151Z,49.28
2022-10-21T17:52:35.219Z,49.33
2022-10-21T17:53:37.980Z,49.31
2022-10-21T17:54:42.574Z,49.34
2022-10-21T17:55:46.374Z,49.38
2022-10-21T17:56:50.960Z,49.40
2022-10-21T17:57:54.197Z,49.39
2022-10-21T17:58:58.230Z,49.39
2022-10-21T18:01:10.852Z,49.45
2022-10-21T18:02:14.884Z,49.45
2022-10-21T18:03:17.673Z,49.46
2022-10-21T18:04:21.727Z,49.49
2022-10-21T18:05:24.278Z,49.48
2022-10-21T18:06:27.643Z,49.46
2022-10-21T18:07:32.189Z,49.46
2022-10-21T18:08:36.875Z,49.50
2022-10-21T18:09:39.481Z,49.52
2022-10-21T18:10:42.804Z,49.46
2022-10-21T18:11:45.834Z,49.42
2022-10-21T18:12:48.927Z,49.34
2022-10-21T18:13:55.094Z,49.34
2022-10-21T18:14:55.868Z,49.37
2022-10-21T18:17:25.275Z,49.36
2022-10-21T18:18:28.452Z,49.31
2022-10-21T18:19:30.768Z,49.58
2022-10-21T18:20:36.165Z,49.44
2022-10-21T18:21:41.450Z,49.47
2022-10-21T18:22:44.204Z,49.45
2022-10-21T18:23:48.334Z,49.44
2022-10-21T18:24:51.143Z,49.55
2022-10-21T18:25:54.174Z,49.61
2022-10-21T18:26:56.774Z,49.66
2022-10-21T18:27:59.273Z,49.70
2022-10-21T18:29:02.280Z,49.69
2022-10-21T18:30:05.883Z,49.72
2022-10-21T18:31:10.334Z,49.76
2022-10-21T18:32:14.840Z,49.72
2022-10-21T18:33:24.829Z,49.79
2022-10-21T18:34:27.261Z,49.81
2022-10-21T18:35:29.450Z,49.85
2022-10-21T18:36:33.222Z,49.82
2022-10-21T18:37:36.470Z,49.91
2022-10-21T18:38:38.819Z,49.92
2022-10-21T18:39:41.652Z,49.91
2022-10-21T18:40:56.357Z,49.92
2022-10-21T18:41:50.374Z,49.90
2022-10-21T18:42:52.928Z,49.90
2022-10-21T18:44:00.225Z,49.86
2022-10-21T18:45:03.035Z,49.88
2022-10-21T18:46:06.477Z,49.87
2022-10-21T18:47:09.227Z,49.84
2022-10-21T18:48:11.475Z,49.81
2022-10-21T18:49:15.433Z,49.82
2022-10-21T18:50:18.390Z,49.81
2022-10-21T18:51:22.300Z,49.82
2022-10-21T18:52:25.683Z,49.83
2022-10-21T18:53:28.619Z,49.78